sensor_id;sensor_type;location;lat;lon;timestamp;temperature;humidity
67777;DHT22;54576;52.020;5.536;2023-08-01T00:01:56;16.80;99.90
67777;DHT22;54576;52.020;5.536;2023-08-01T00:04:22;16.80;99.90
67777;DHT22;54576;52.020;5.536;2023-08-01T00:06:47;16.80;99.90
67777;DHT22;54576;52.020;5.536;2023-08-01T00:09:13;16.70;99.90
67777;DHT22;54576;52.020;5.536;2023-08-01T00:11:39;16.70;99.90
67777;DHT22;54576;52.020;5.536;2023-08-01T00:14:04;16.70;99.90
67777;DHT22;54576;52.020;5.536;2023-08-01T00:16:30;16.80;99.90
67777;DHT22;54576;52.020;5.536;2023-08-01T00:18:57;16.80;99.90
67777;DHT22;54576;52.020;5.536;2023-08-01T00:21:23;16.70;99.90
67777;DHT22;54576;52.020;5.536;2023-08-01T00:23:48;16.70;99.90
67777;DHT22;54576;52.020;5.536;2023-08-01T00:26:14;16.70;99.90
67777;DHT22;54576;52.020;5.536;2023-08-01T00:28:40;16.70;99.90
67777;DHT22;54576;52.020;5.536;2023-08-01T00:31:07;16.70;99.90
67777;DHT22;54576;52.020;5.536;2023-08-01T00:33:34;16.70;99.90
67777;DHT22;54576;52.020;5.536;2023-08-01T00:36:03;16.60;99.90
67777;DHT22;54576;52.020;5.536;2023-08-01T00:38:34;16.60;99.90
67777;DHT22;54576;52.020;5.536;2023-08-01T00:40:59;16.60;99.90
67777;DHT22;54576;52.020;5.536;2023-08-01T00:43:25;16.60;99.90
67777;DHT22;54576;52.020;5.536;2023-08-01T00:45:51;16.60;99.90
67777;DHT22;54576;52.020;5.536;2023-08-01T00:48:18;16.50;99.90
67777;DHT22;54576;52.020;5.536;2023-08-01T00:50:44;16.60;99.90
67777;DHT22;54576;52.020;5.536;2023-08-01T00:53:11;16.50;99.90
67777;DHT22;54576;52.020;5.536;2023-08-01T00:55:37;16.50;99.90
67777;DHT22;54576;52.020;5.536;2023-08-01T00:58:03;16.50;99.90
67777;DHT22;54576;52.020;5.536;2023-08-01T01:00:28;16.50;99.90
67777;DHT22;54576;52.020;5.536;2023-08-01T01:02:55;16.40;99.90
67777;DHT22;54576;52.020;5.536;2023-08-01T01:05:21;16.40;99.90
67777;DHT22;54576;52.020;5.536;2023-08-01T01:07:47;16.30;99.90
67777;DHT22;54576;52.020;5.536;2023-08-01T01:10:13;16.30;99.90
67777;DHT22;54576;52.020;5.536;2023-08-01T01:12:41;16.20;99.90
67777;DHT22;54576;52.020;5.536;2023-08-01T01:15:07;16.20;99.90
67777;DHT22;54576;52.020;5.536;2023-08-01T01:17:32;16.10;99.90
67777;DHT22;54576;52.020;5.536;2023-08-01T01:19:58;16.10;99.90
67777;DHT22;54576;52.020;5.536;2023-08-01T01:22:24;16.00;99.90
67777;DHT22;54576;52.020;5.536;2023-08-01T01:24:50;16.00;99.90
67777;DHT22;54576;52.020;5.536;2023-08-01T01:27:18;16.00;99.90
67777;DHT22;54576;52.020;5.536;2023-08-01T01:29:44;16.00;99.90
67777;DHT22;54576;52.020;5.536;2023-08-01T01:32:11;15.90;99.90
67777;DHT22;54576;52.020;5.536;2023-08-01T01:34:37;15.90;99.90
67777;DHT22;54576;52.020;5.536;2023-08-01T01:37:03;15.90;99.90
67777;DHT22;54576;52.020;5.536;2023-08-01T01:39:28;15.80;99.90
67777;DHT22;54576;52.020;5.536;2023-08-01T01:41:54;15.80;99.90
67777;DHT22;54576;52.020;5.536;2023-08-01T01:44:20;15.80;99.90
67777;DHT22;54576;52.020;5.536;2023-08-01T01:46:45;15.80;99.90
67777;DHT22;54576;52.020;5.536;2023-08-01T01:49:11;15.80;99.90
67777;DHT22;54576;52.020;5.536;2023-08-01T01:51:37;15.80;99.90
67777;DHT22;54576;52.020;5.536;2023-08-01T01:54:03;15.80;99.90
67777;DHT22;54576;52.020;5.536;2023-08-01T01:56:28;15.80;99.90
67777;DHT22;54576;52.020;5.536;2023-08-01T01:58:56;15.80;99.90
67777;DHT22;54576;52.020;5.536;2023-08-01T02:01:22;15.70;99.90
67777;DHT22;54576;52.020;5.536;2023-08-01T02:03:50;15.70;99.90
67777;DHT22;54576;52.020;5.536;2023-08-01T02:06:16;15.70;99.90
67777;DHT22;54576;52.020;5.536;2023-08-01T02:08:41;15.70;99.90
67777;DHT22;54576;52.020;5.536;2023-08-01T02:11:07;15.70;99.90
67777;DHT22;54576;52.020;5.536;2023-08-01T02:13:32;15.70;99.90
67777;DHT22;54576;52.020;5.536;2023-08-01T02:15:59;15.70;99.90
67777;DHT22;54576;52.020;5.536;2023-08-01T02:18:25;15.60;99.90
67777;DHT22;54576;52.020;5.536;2023-08-01T02:20:50;15.60;99.90
67777;DHT22;54576;52.020;5.536;2023-08-01T02:23:16;15.60;99.90
67777;DHT22;54576;52.020;5.536;2023-08-01T02:25:42;15.60;99.90
67777;DHT22;54576;52.020;5.536;2023-08-01T02:28:08;15.60;99.90
67777;DHT22;54576;52.020;5.536;2023-08-01T02:30:34;15.60;99.90
67777;DHT22;54576;52.020;5.536;2023-08-01T02:33:00;15.60;99.90
67777;DHT22;54576;52.020;5.536;2023-08-01T02:35:26;15.50;99.90
67777;DHT22;54576;52.020;5.536;2023-08-01T02:37:53;15.60;99.90
67777;DHT22;54576;52.020;5.536;2023-08-01T02:40:19;15.60;99.90
67777;DHT22;54576;52.020;5.536;2023-08-01T02:42:44;15.60;99.90
67777;DHT22;54576;52.020;5.536;2023-08-01T02:45:10;15.60;99.90
67777;DHT22;54576;52.020;5.536;2023-08-01T02:47:36;15.60;99.90
67777;DHT22;54576;52.020;5.536;2023-08-01T02:50:01;15.70;99.90
67777;DHT22;54576;52.020;5.536;2023-08-01T02:52:27;15.70;99.90
67777;DHT22;54576;52.020;5.536;2023-08-01T02:54:53;15.70;99.90
67777;DHT22;54576;52.020;5.536;2023-08-01T02:57:19;15.80;99.90
67777;DHT22;54576;52.020;5.536;2023-08-01T02:59:45;15.80;99.90
67777;DHT22;54576;52.020;5.536;2023-08-01T03:02:10;15.80;99.90
67777;DHT22;54576;52.020;5.536;2023-08-01T03:04:36;15.80;99.90
67777;DHT22;54576;52.020;5.536;2023-08-01T03:07:01;15.80;99.90
67777;DHT22;54576;52.020;5.536;2023-08-01T03:09:27;15.80;99.90
67777;DHT22;54576;52.020;5.536;2023-08-01T03:11:53;15.80;99.90
67777;DHT22;54576;52.020;5.536;2023-08-01T03:14:18;15.80;99.90
67777;DHT22;54576;52.020;5.536;2023-08-01T03:16:47;15.90;99.90
67777;DHT22;54576;52.020;5.536;2023-08-01T03:19:21;15.90;99.90
67777;DHT22;54576;52.020;5.536;2023-08-01T03:21:50;15.90;99.90
67777;DHT22;54576;52.020;5.536;2023-08-01T03:24:16;15.90;99.90
67777;DHT22;54576;52.020;5.536;2023-08-01T03:26:41;16.00;99.90
67777;DHT22;54576;52.020;5.536;2023-08-01T03:29:07;16.00;99.90
67777;DHT22;54576;52.020;5.536;2023-08-01T03:31:32;16.00;99.90
67777;DHT22;54576;52.020;5.536;2023-08-01T03:33:58;16.00;99.90
67777;DHT22;54576;52.020;5.536;2023-08-01T03:36:24;16.00;99.90
67777;DHT22;54576;52.020;5.536;2023-08-01T03:38:50;16.00;99.90
67777;DHT22;54576;52.020;5.536;2023-08-01T03:41:15;16.00;99.90
67777;DHT22;54576;52.020;5.536;2023-08-01T03:43:41;16.00;99.90
67777;DHT22;54576;52.020;5.536;2023-08-01T03:46:07;16.00;99.90
67777;DHT22;54576;52.020;5.536;2023-08-01T03:48:33;16.00;99.90
67777;DHT22;54576;52.020;5.536;2023-08-01T03:50:58;16.00;99.90
67777;DHT22;54576;52.020;5.536;2023-08-01T03:53:24;16.00;99.90
67777;DHT22;54576;52.020;5.536;2023-08-01T03:55:49;16.00;99.90
67777;DHT22;54576;52.020;5.536;2023-08-01T03:58:15;16.00;99.90
67777;DHT22;54576;52.020;5.536;2023-08-01T04:00:40;16.00;99.90
67777;DHT22;54576;52.020;5.536;2023-08-01T04:03:06;16.00;99.90
67777;DHT22;54576;52.020;5.536;2023-08-01T04:05:32;16.00;99.90
67777;DHT22;54576;52.020;5.536;2023-08-01T04:07:59;16.00;99.90
67777;DHT22;54576;52.020;5.536;2023-08-01T04:10:25;16.00;99.90
67777;DHT22;54576;52.020;5.536;2023-08-01T04:12:50;16.10;99.90
67777;DHT22;54576;52.020;5.536;2023-08-01T04:15:16;16.10;99.90
67777;DHT22;54576;52.020;5.536;2023-08-01T04:17:42;16.10;99.90
67777;DHT22;54576;52.020;5.536;2023-08-01T04:20:08;16.10;99.90
67777;DHT22;54576;52.020;5.536;2023-08-01T04:22:33;16.10;99.90
67777;DHT22;54576;52.020;5.536;2023-08-01T04:25:00;16.10;99.90
67777;DHT22;54576;52.020;5.536;2023-08-01T04:27:26;16.10;99.90
67777;DHT22;54576;52.020;5.536;2023-08-01T04:29:51;16.10;99.90
67777;DHT22;54576;52.020;5.536;2023-08-01T04:32:17;16.10;99.90
67777;DHT22;54576;52.020;5.536;2023-08-01T04:34:42;16.10;99.90
67777;DHT22;54576;52.020;5.536;2023-08-01T04:37:08;16.10;99.90
67777;DHT22;54576;52.020;5.536;2023-08-01T04:39:34;16.00;99.90
67777;DHT22;54576;52.020;5.536;2023-08-01T04:41:59;16.10;99.90
67777;DHT22;54576;52.020;5.536;2023-08-01T04:44:25;16.10;99.90
67777;DHT22;54576;52.020;5.536;2023-08-01T04:46:50;16.10;99.90
67777;DHT22;54576;52.020;5.536;2023-08-01T04:49:16;16.10;99.90
67777;DHT22;54576;52.020;5.536;2023-08-01T04:51:42;16.10;99.90
67777;DHT22;54576;52.020;5.536;2023-08-01T04:54:07;16.10;99.90
67777;DHT22;54576;52.020;5.536;2023-08-01T04:56:33;16.10;99.90
67777;DHT22;54576;52.020;5.536;2023-08-01T04:58:58;16.10;99.90
67777;DHT22;54576;52.020;5.536;2023-08-01T05:01:24;16.10;99.90
67777;DHT22;54576;52.020;5.536;2023-08-01T05:03:49;16.20;99.90
67777;DHT22;54576;52.020;5.536;2023-08-01T05:06:15;16.20;99.90
67777;DHT22;54576;52.020;5.536;2023-08-01T05:08:41;16.40;99.90
67777;DHT22;54576;52.020;5.536;2023-08-01T05:11:06;16.40;99.90
67777;DHT22;54576;52.020;5.536;2023-08-01T05:13:32;16.40;99.90
67777;DHT22;54576;52.020;5.536;2023-08-01T05:15:57;16.50;99.90
67777;DHT22;54576;52.020;5.536;2023-08-01T05:18:23;16.50;99.90
67777;DHT22;54576;52.020;5.536;2023-08-01T05:20:49;16.70;99.90
67777;DHT22;54576;52.020;5.536;2023-08-01T05:23:14;17.00;99.90
67777;DHT22;54576;52.020;5.536;2023-08-01T05:28:06;17.20;99.90
67777;DHT22;54576;52.020;5.536;2023-08-01T05:37:49;17.50;99.90
67777;DHT22;54576;52.020;5.536;2023-08-01T05:40:15;17.50;99.90
67777;DHT22;54576;52.020;5.536;2023-08-01T05:42:40;17.70;99.90
67777;DHT22;54576;52.020;5.536;2023-08-01T05:45:06;17.90;99.90
67777;DHT22;54576;52.020;5.536;2023-08-01T05:47:32;18.00;99.90
67777;DHT22;54576;52.020;5.536;2023-08-01T05:49:58;18.00;99.90
67777;DHT22;54576;52.020;5.536;2023-08-01T05:52:23;17.90;99.90
67777;DHT22;54576;52.020;5.536;2023-08-01T05:54:49;17.80;99.90
67777;DHT22;54576;52.020;5.536;2023-08-01T05:57:15;17.70;99.90
67777;DHT22;54576;52.020;5.536;2023-08-01T06:04:32;17.50;99.90
67777;DHT22;54576;52.020;5.536;2023-08-01T06:06:58;17.50;99.90
67777;DHT22;54576;52.020;5.536;2023-08-01T06:09:24;17.50;99.90
67777;DHT22;54576;52.020;5.536;2023-08-01T06:11:50;17.60;99.90
67777;DHT22;54576;52.020;5.536;2023-08-01T06:16:42;17.60;99.90
67777;DHT22;54576;52.020;5.536;2023-08-01T06:19:07;17.70;99.90
67777;DHT22;54576;52.020;5.536;2023-08-01T06:21:33;17.90;99.90
67777;DHT22;54576;52.020;5.536;2023-08-01T06:23:59;18.00;99.90
67777;DHT22;54576;52.020;5.536;2023-08-01T06:26:24;18.30;99.90
67777;DHT22;54576;52.020;5.536;2023-08-01T06:28:50;18.60;99.90
67777;DHT22;54576;52.020;5.536;2023-08-01T06:31:18;18.90;99.90
67777;DHT22;54576;52.020;5.536;2023-08-01T06:33:44;19.00;99.90
67777;DHT22;54576;52.020;5.536;2023-08-01T06:36:10;18.90;99.90
67777;DHT22;54576;52.020;5.536;2023-08-01T06:38:35;19.20;99.90
67777;DHT22;54576;52.020;5.536;2023-08-01T06:41:01;19.40;99.90
67777;DHT22;54576;52.020;5.536;2023-08-01T06:43:26;19.70;99.90
67777;DHT22;54576;52.020;5.536;2023-08-01T06:45:52;20.00;99.90
67777;DHT22;54576;52.020;5.536;2023-08-01T06:48:17;20.30;99.90
67777;DHT22;54576;52.020;5.536;2023-08-01T06:50:43;20.50;99.90
67777;DHT22;54576;52.020;5.536;2023-08-01T06:53:09;20.80;99.90
67777;DHT22;54576;52.020;5.536;2023-08-01T06:55:34;20.90;99.90
67777;DHT22;54576;52.020;5.536;2023-08-01T07:19:57;19.30;99.90
67777;DHT22;54576;52.020;5.536;2023-08-01T07:46:47;19.20;99.90
67777;DHT22;54576;52.020;5.536;2023-08-01T07:49:13;19.30;99.90
67777;DHT22;54576;52.020;5.536;2023-08-01T07:51:38;19.00;99.90
67777;DHT22;54576;52.020;5.536;2023-08-01T07:54:04;18.90;99.90
67777;DHT22;54576;52.020;5.536;2023-08-01T08:01:21;18.40;99.90
67777;DHT22;54576;52.020;5.536;2023-08-01T08:03:48;18.40;99.90
67777;DHT22;54576;52.020;5.536;2023-08-01T08:06:13;18.30;99.90
67777;DHT22;54576;52.020;5.536;2023-08-01T08:08:39;18.40;99.90
67777;DHT22;54576;52.020;5.536;2023-08-01T08:11:04;18.50;99.90
67777;DHT22;54576;52.020;5.536;2023-08-01T08:13:30;18.70;99.90
67777;DHT22;54576;52.020;5.536;2023-08-01T08:15:57;18.80;99.90
67777;DHT22;54576;52.020;5.536;2023-08-01T08:18:23;18.90;99.90
67777;DHT22;54576;52.020;5.536;2023-08-01T08:20:48;19.00;99.90
67777;DHT22;54576;52.020;5.536;2023-08-01T08:23:14;19.10;99.90
67777;DHT22;54576;52.020;5.536;2023-08-01T08:25:41;19.30;99.90
67777;DHT22;54576;52.020;5.536;2023-08-01T08:30:33;19.40;99.90
67777;DHT22;54576;52.020;5.536;2023-08-01T08:35:30;19.60;99.90
67777;DHT22;54576;52.020;5.536;2023-08-01T08:37:58;19.70;99.90
67777;DHT22;54576;52.020;5.536;2023-08-01T09:00:03;20.50;99.90
67777;DHT22;54576;52.020;5.536;2023-08-01T09:02:30;20.50;98.70
67777;DHT22;54576;52.020;5.536;2023-08-01T09:04:57;20.50;99.90
67777;DHT22;54576;52.020;5.536;2023-08-01T09:12:16;20.90;99.90
67777;DHT22;54576;52.020;5.536;2023-08-01T09:14:42;20.70;99.90
67777;DHT22;54576;52.020;5.536;2023-08-01T09:17:09;20.60;99.90
67777;DHT22;54576;52.020;5.536;2023-08-01T09:22:13;20.60;99.90
67777;DHT22;54576;52.020;5.536;2023-08-01T09:24:50;20.40;99.90
67777;DHT22;54576;52.020;5.536;2023-08-01T09:27:15;20.40;99.90
67777;DHT22;54576;52.020;5.536;2023-08-01T09:29:41;20.40;99.90
67777;DHT22;54576;52.020;5.536;2023-08-01T09:32:13;20.50;99.90
67777;DHT22;54576;52.020;5.536;2023-08-01T09:34:43;20.60;99.90
67777;DHT22;54576;52.020;5.536;2023-08-01T09:37:09;20.70;99.90
67777;DHT22;54576;52.020;5.536;2023-08-01T09:39:35;21.00;99.90
67777;DHT22;54576;52.020;5.536;2023-08-01T09:42:02;21.20;99.90
67777;DHT22;54576;52.020;5.536;2023-08-01T09:44:28;21.20;99.90
67777;DHT22;54576;52.020;5.536;2023-08-01T09:47:03;21.10;99.90
67777;DHT22;54576;52.020;5.536;2023-08-01T09:49:32;20.80;99.90
67777;DHT22;54576;52.020;5.536;2023-08-01T09:51:59;20.70;99.90
67777;DHT22;54576;52.020;5.536;2023-08-01T09:54:26;20.50;99.90
67777;DHT22;54576;52.020;5.536;2023-08-01T09:56:53;20.60;99.90
67777;DHT22;54576;52.020;5.536;2023-08-01T09:59:24;20.80;99.90
67777;DHT22;54576;52.020;5.536;2023-08-01T10:04:23;21.30;99.90
67777;DHT22;54576;52.020;5.536;2023-08-01T10:06:57;20.90;99.90
67777;DHT22;54576;52.020;5.536;2023-08-01T10:09:24;20.70;99.90
67777;DHT22;54576;52.020;5.536;2023-08-01T10:11:51;20.40;99.90
67777;DHT22;54576;52.020;5.536;2023-08-01T10:14:19;20.30;99.90
67777;DHT22;54576;52.020;5.536;2023-08-01T10:16:45;20.40;99.90
67777;DHT22;54576;52.020;5.536;2023-08-01T10:19:13;20.40;99.90
67777;DHT22;54576;52.020;5.536;2023-08-01T10:21:40;20.50;99.90
67777;DHT22;54576;52.020;5.536;2023-08-01T10:24:07;20.50;99.90
67777;DHT22;54576;52.020;5.536;2023-08-01T10:26:33;20.80;99.90
67777;DHT22;54576;52.020;5.536;2023-08-01T10:28:59;21.20;99.90
67777;DHT22;54576;52.020;5.536;2023-08-01T10:31:27;21.30;99.90
67777;DHT22;54576;52.020;5.536;2023-08-01T10:34:07;21.20;99.90
67777;DHT22;54576;52.020;5.536;2023-08-01T10:36:32;21.00;95.40
67777;DHT22;54576;52.020;5.536;2023-08-01T10:39:00;20.90;99.90
67777;DHT22;54576;52.020;5.536;2023-08-01T10:41:32;20.80;99.90
67777;DHT22;54576;52.020;5.536;2023-08-01T10:44:05;20.70;97.60
67777;DHT22;54576;52.020;5.536;2023-08-01T10:46:50;20.70;90.50
67777;DHT22;54576;52.020;5.536;2023-08-01T10:49:17;20.60;83.00
67777;DHT22;54576;52.020;5.536;2023-08-01T10:51:44;20.60;99.90
67777;DHT22;54576;52.020;5.536;2023-08-01T10:56:46;20.60;96.70
67777;DHT22;54576;52.020;5.536;2023-08-01T10:59:13;20.60;99.90
67777;DHT22;54576;52.020;5.536;2023-08-01T11:01:50;20.50;99.90
67777;DHT22;54576;52.020;5.536;2023-08-01T11:04:16;20.40;80.20
67777;DHT22;54576;52.020;5.536;2023-08-01T11:06:52;20.40;99.90
67777;DHT22;54576;52.020;5.536;2023-08-01T11:09:22;20.40;96.70
67777;DHT22;54576;52.020;5.536;2023-08-01T11:11:53;20.40;99.90
67777;DHT22;54576;52.020;5.536;2023-08-01T11:14:20;20.30;99.70
67777;DHT22;54576;52.020;5.536;2023-08-01T11:16:48;20.30;99.90
67777;DHT22;54576;52.020;5.536;2023-08-01T11:19:18;20.50;99.90
67777;DHT22;54576;52.020;5.536;2023-08-01T11:21:45;20.70;95.90
67777;DHT22;54576;52.020;5.536;2023-08-01T11:24:10;20.80;98.90
67777;DHT22;54576;52.020;5.536;2023-08-01T11:26:40;21.00;99.40
67777;DHT22;54576;52.020;5.536;2023-08-01T11:29:06;21.10;98.40
67777;DHT22;54576;52.020;5.536;2023-08-01T11:31:32;21.20;99.50
67777;DHT22;54576;52.020;5.536;2023-08-01T11:43:50;22.10;94.40
67777;DHT22;54576;52.020;5.536;2023-08-01T11:46:17;22.10;94.10
67777;DHT22;54576;52.020;5.536;2023-08-01T11:48:46;22.20;94.60
67777;DHT22;54576;52.020;5.536;2023-08-01T11:51:12;22.40;93.60
67777;DHT22;54576;52.020;5.536;2023-08-01T11:53:38;22.40;94.20
67777;DHT22;54576;52.020;5.536;2023-08-01T11:56:05;22.20;93.70
67777;DHT22;54576;52.020;5.536;2023-08-01T11:58:32;22.00;94.20
67777;DHT22;54576;52.020;5.536;2023-08-01T12:01:10;21.70;95.00
67777;DHT22;54576;52.020;5.536;2023-08-01T12:03:49;21.50;74.60
67777;DHT22;54576;52.020;5.536;2023-08-01T12:06:16;21.30;91.90
67777;DHT22;54576;52.020;5.536;2023-08-01T12:08:43;21.20;95.90
67777;DHT22;54576;52.020;5.536;2023-08-01T12:11:23;21.20;86.40
67777;DHT22;54576;52.020;5.536;2023-08-01T12:14:02;21.20;89.30
67777;DHT22;54576;52.020;5.536;2023-08-01T12:16:28;21.20;93.50
67777;DHT22;54576;52.020;5.536;2023-08-01T12:18:54;21.00;94.00
67777;DHT22;54576;52.020;5.536;2023-08-01T12:21:19;20.80;95.90
67777;DHT22;54576;52.020;5.536;2023-08-01T12:23:45;20.90;97.20
67777;DHT22;54576;52.020;5.536;2023-08-01T12:26:10;21.20;95.10
67777;DHT22;54576;52.020;5.536;2023-08-01T12:28:36;21.30;93.70
67777;DHT22;54576;52.020;5.536;2023-08-01T12:31:02;21.40;91.50
67777;DHT22;54576;52.020;5.536;2023-08-01T12:33:29;21.30;91.90
67777;DHT22;54576;52.020;5.536;2023-08-01T12:35:54;21.20;91.60
67777;DHT22;54576;52.020;5.536;2023-08-01T12:38:20;21.10;92.80
67777;DHT22;54576;52.020;5.536;2023-08-01T12:40:45;21.00;93.60
67777;DHT22;54576;52.020;5.536;2023-08-01T12:43:12;20.90;93.40
67777;DHT22;54576;52.020;5.536;2023-08-01T12:45:38;20.90;94.30
67777;DHT22;54576;52.020;5.536;2023-08-01T12:48:03;21.10;94.20
67777;DHT22;54576;52.020;5.536;2023-08-01T12:50:29;21.20;92.30
67777;DHT22;54576;52.020;5.536;2023-08-01T12:52:55;21.30;91.80
67777;DHT22;54576;52.020;5.536;2023-08-01T12:55:21;21.30;92.00
67777;DHT22;54576;52.020;5.536;2023-08-01T12:57:47;21.30;91.50
67777;DHT22;54576;52.020;5.536;2023-08-01T13:00:12;21.10;91.40
67777;DHT22;54576;52.020;5.536;2023-08-01T13:02:38;21.00;92.10
67777;DHT22;54576;52.020;5.536;2023-08-01T13:05:05;21.00;91.50
67777;DHT22;54576;52.020;5.536;2023-08-01T13:07:30;21.00;91.60
67777;DHT22;54576;52.020;5.536;2023-08-01T13:10:00;21.00;91.80
67777;DHT22;54576;52.020;5.536;2023-08-01T13:12:25;21.00;91.60
67777;DHT22;54576;52.020;5.536;2023-08-01T13:14:51;20.90;85.10
67777;DHT22;54576;52.020;5.536;2023-08-01T13:17:17;21.00;89.80
67777;DHT22;54576;52.020;5.536;2023-08-01T13:19:42;21.20;89.40
67777;DHT22;54576;52.020;5.536;2023-08-01T13:22:08;21.20;89.20
67777;DHT22;54576;52.020;5.536;2023-08-01T13:24:33;21.20;87.40
67777;DHT22;54576;52.020;5.536;2023-08-01T13:26:59;21.10;86.60
67777;DHT22;54576;52.020;5.536;2023-08-01T13:29:24;21.00;87.00
67777;DHT22;54576;52.020;5.536;2023-08-01T13:31:50;20.80;87.50
67777;DHT22;54576;52.020;5.536;2023-08-01T13:34:15;20.70;88.20
67777;DHT22;54576;52.020;5.536;2023-08-01T13:36:43;20.50;87.40
67777;DHT22;54576;52.020;5.536;2023-08-01T13:39:08;20.40;89.00
67777;DHT22;54576;52.020;5.536;2023-08-01T13:41:34;20.40;90.40
67777;DHT22;54576;52.020;5.536;2023-08-01T13:44:00;20.50;90.40
67777;DHT22;54576;52.020;5.536;2023-08-01T13:46:26;20.60;90.10
67777;DHT22;54576;52.020;5.536;2023-08-01T13:48:51;20.70;89.70
67777;DHT22;54576;52.020;5.536;2023-08-01T13:51:17;20.80;90.20
67777;DHT22;54576;52.020;5.536;2023-08-01T13:53:42;21.10;88.80
67777;DHT22;54576;52.020;5.536;2023-08-01T13:56:09;21.20;88.80
67777;DHT22;54576;52.020;5.536;2023-08-01T13:58:34;21.40;87.80
67777;DHT22;54576;52.020;5.536;2023-08-01T14:01:08;21.50;82.80
67777;DHT22;54576;52.020;5.536;2023-08-01T14:03:34;21.60;75.90
67777;DHT22;54576;52.020;5.536;2023-08-01T14:06:07;21.70;83.10
67777;DHT22;54576;52.020;5.536;2023-08-01T14:08:34;21.90;77.40
67777;DHT22;54576;52.020;5.536;2023-08-01T14:11:04;22.10;81.50
67777;DHT22;54576;52.020;5.536;2023-08-01T14:13:30;22.20;81.20
67777;DHT22;54576;52.020;5.536;2023-08-01T14:15:55;22.30;80.80
67777;DHT22;54576;52.020;5.536;2023-08-01T14:18:21;22.20;81.30
67777;DHT22;54576;52.020;5.536;2023-08-01T14:20:46;22.10;81.70
67777;DHT22;54576;52.020;5.536;2023-08-01T14:23:12;21.80;80.50
67777;DHT22;54576;52.020;5.536;2023-08-01T14:25:38;21.70;80.60
67777;DHT22;54576;52.020;5.536;2023-08-01T14:28:04;21.50;81.60
67777;DHT22;54576;52.020;5.536;2023-08-01T14:30:30;21.30;81.00
67777;DHT22;54576;52.020;5.536;2023-08-01T14:33:03;21.10;79.20
67777;DHT22;54576;52.020;5.536;2023-08-01T14:35:29;20.90;75.00
67777;DHT22;54576;52.020;5.536;2023-08-01T14:37:55;20.70;83.10
67777;DHT22;54576;52.020;5.536;2023-08-01T14:40:21;20.70;83.80
67777;DHT22;54576;52.020;5.536;2023-08-01T14:42:47;20.50;84.60
67777;DHT22;54576;52.020;5.536;2023-08-01T14:45:13;20.40;84.30
67777;DHT22;54576;52.020;5.536;2023-08-01T14:47:42;20.30;84.50
67777;DHT22;54576;52.020;5.536;2023-08-01T14:50:10;20.30;84.40
67777;DHT22;54576;52.020;5.536;2023-08-01T14:52:35;20.30;85.30
67777;DHT22;54576;52.020;5.536;2023-08-01T14:55:01;20.40;87.30
67777;DHT22;54576;52.020;5.536;2023-08-01T14:57:27;20.50;86.20
67777;DHT22;54576;52.020;5.536;2023-08-01T14:59:53;20.60;86.00
67777;DHT22;54576;52.020;5.536;2023-08-01T15:02:19;20.80;85.30
67777;DHT22;54576;52.020;5.536;2023-08-01T15:04:45;21.10;93.90
67777;DHT22;54576;52.020;5.536;2023-08-01T15:07:10;21.00;82.90
67777;DHT22;54576;52.020;5.536;2023-08-01T15:09:36;21.10;83.20
67777;DHT22;54576;52.020;5.536;2023-08-01T15:12:02;21.10;83.20
67777;DHT22;54576;52.020;5.536;2023-08-01T15:14:27;21.10;82.90
67777;DHT22;54576;52.020;5.536;2023-08-01T15:16:53;21.00;81.10
67777;DHT22;54576;52.020;5.536;2023-08-01T15:19:18;20.70;80.40
67777;DHT22;54576;52.020;5.536;2023-08-01T15:21:47;20.60;81.90
67777;DHT22;54576;52.020;5.536;2023-08-01T15:24:13;20.50;82.10
67777;DHT22;54576;52.020;5.536;2023-08-01T15:26:39;20.50;84.50
67777;DHT22;54576;52.020;5.536;2023-08-01T15:29:04;20.50;84.00
67777;DHT22;54576;52.020;5.536;2023-08-01T15:31:30;20.50;83.40
67777;DHT22;54576;52.020;5.536;2023-08-01T15:33:56;20.40;83.40
67777;DHT22;54576;52.020;5.536;2023-08-01T15:36:26;20.40;84.00
67777;DHT22;54576;52.020;5.536;2023-08-01T15:38:52;20.40;83.60
67777;DHT22;54576;52.020;5.536;2023-08-01T15:41:18;20.40;84.10
67777;DHT22;54576;52.020;5.536;2023-08-01T15:43:43;20.30;84.50
67777;DHT22;54576;52.020;5.536;2023-08-01T15:46:11;20.30;84.20
67777;DHT22;54576;52.020;5.536;2023-08-01T15:48:37;20.20;84.70
67777;DHT22;54576;52.020;5.536;2023-08-01T15:51:04;20.20;87.90
67777;DHT22;54576;52.020;5.536;2023-08-01T15:53:30;20.10;88.60
67777;DHT22;54576;52.020;5.536;2023-08-01T15:55:57;19.90;87.30
67777;DHT22;54576;52.020;5.536;2023-08-01T15:58:23;19.60;90.00
67777;DHT22;54576;52.020;5.536;2023-08-01T16:00:49;19.20;91.80
67777;DHT22;54576;52.020;5.536;2023-08-01T16:03:14;18.90;93.50
67777;DHT22;54576;52.020;5.536;2023-08-01T16:05:40;18.60;95.20
67777;DHT22;54576;52.020;5.536;2023-08-01T16:08:06;18.50;96.00
67777;DHT22;54576;52.020;5.536;2023-08-01T16:10:31;18.50;96.70
67777;DHT22;54576;52.020;5.536;2023-08-01T16:12:57;18.40;96.80
67777;DHT22;54576;52.020;5.536;2023-08-01T16:15:23;18.40;97.30
67777;DHT22;54576;52.020;5.536;2023-08-01T16:17:48;18.40;97.90
67777;DHT22;54576;52.020;5.536;2023-08-01T16:20:15;18.60;98.20
67777;DHT22;54576;52.020;5.536;2023-08-01T16:22:41;18.60;97.50
67777;DHT22;54576;52.020;5.536;2023-08-01T16:25:07;18.80;97.40
67777;DHT22;54576;52.020;5.536;2023-08-01T16:27:33;19.00;96.40
67777;DHT22;54576;52.020;5.536;2023-08-01T16:30:02;19.10;95.40
67777;DHT22;54576;52.020;5.536;2023-08-01T16:32:28;19.20;94.90
67777;DHT22;54576;52.020;5.536;2023-08-01T16:34:54;19.40;93.90
67777;DHT22;54576;52.020;5.536;2023-08-01T16:37:19;19.50;94.00
67777;DHT22;54576;52.020;5.536;2023-08-01T16:39:47;19.70;94.00
67777;DHT22;54576;52.020;5.536;2023-08-01T16:42:13;19.90;93.50
67777;DHT22;54576;52.020;5.536;2023-08-01T16:44:38;20.10;93.10
67777;DHT22;54576;52.020;5.536;2023-08-01T16:47:10;20.30;92.20
67777;DHT22;54576;52.020;5.536;2023-08-01T16:49:36;20.50;90.30
67777;DHT22;54576;52.020;5.536;2023-08-01T16:52:01;20.60;91.70
67777;DHT22;54576;52.020;5.536;2023-08-01T16:54:27;20.70;91.30
67777;DHT22;54576;52.020;5.536;2023-08-01T16:56:52;20.80;90.90
67777;DHT22;54576;52.020;5.536;2023-08-01T16:59:18;20.80;90.20
67777;DHT22;54576;52.020;5.536;2023-08-01T17:01:43;20.80;90.30
67777;DHT22;54576;52.020;5.536;2023-08-01T17:04:12;20.80;90.30
67777;DHT22;54576;52.020;5.536;2023-08-01T17:06:38;20.70;90.40
67777;DHT22;54576;52.020;5.536;2023-08-01T17:09:03;20.70;91.00
67777;DHT22;54576;52.020;5.536;2023-08-01T17:11:32;20.60;90.60
67777;DHT22;54576;52.020;5.536;2023-08-01T17:13:58;20.50;90.70
67777;DHT22;54576;52.020;5.536;2023-08-01T17:16:24;20.40;90.90
67777;DHT22;54576;52.020;5.536;2023-08-01T17:18:49;20.50;99.90
67777;DHT22;54576;52.020;5.536;2023-08-01T17:21:15;20.30;91.00